createdAt,value
2017-11-23T00:00:08.868Z,3.6
2017-11-23T00:01:11.892Z,3.2
2017-11-23T00:02:14.209Z,3.8
2017-11-23T00:03:16.522Z,3.6
2017-11-23T00:04:18.386Z,3.8
2017-11-23T00:05:20.998Z,3.4
2017-11-23T00:06:24.245Z,3.2
2017-11-23T00:07:26.357Z,2.9
2017-11-23T00:08:36.913Z,3.5
2017-11-23T00:09:40.608Z,3.4
2017-11-23T00:10:43.839Z,3.2
2017-11-23T00:11:46.786Z,3.4
2017-11-23T00:12:48.910Z,3.4
2017-11-23T00:13:58.709Z,3.3
2017-11-23T00:15:01.166Z,3.4
2017-11-23T00:16:04.587Z,3.8
2017-11-23T00:17:07.582Z,3.5
2017-11-23T00:18:09.730Z,3.1
2017-11-23T00:19:12.819Z,3.4
2017-11-23T00:20:16.924Z,3.3
2017-11-23T00:21:19.228Z,3.6
2017-11-23T00:22:23.994Z,3.4
2017-11-23T00:23:25.748Z,3.8
2017-11-23T00:24:27.507Z,3.3
2017-11-23T00:25:30.425Z,3.4
2017-11-23T00:26:33.019Z,3.6
2017-11-23T00:27:36.157Z,3.2
2017-11-23T00:28:38.503Z,3.7
2017-11-23T00:29:41.333Z,3.6
2017-11-23T00:30:44.984Z,3.9
2017-11-23T00:31:47.784Z,3.3
2017-11-23T00:32:49.577Z,3.6
2017-11-23T00:33:51.936Z,3.5
2017-11-23T00:34:54.582Z,3.8
2017-11-23T00:35:57.234Z,3.7
2017-11-23T00:36:59.975Z,3.7
2017-11-23T00:38:01.885Z,3.6
2017-11-23T00:39:03.966Z,3.7
2017-11-23T00:40:06.813Z,3.3
2017-11-23T00:41:09.462Z,3.4
2017-11-23T00:42:12.144Z,3.6
2017-11-23T00:43:15.065Z,3.9
2017-11-23T00:44:17.797Z,3.3
2017-11-23T00:45:19.926Z,3.4
2017-11-23T00:46:21.951Z,3.8
2017-11-23T00:47:23.948Z,3.7
2017-11-23T00:48:26.199Z,3.9
2017-11-23T00:49:29.338Z,3.7
2017-11-23T00:50:31.465Z,3.4
2017-11-23T00:51:33.802Z,3.9
2017-11-23T00:52:36.261Z,3.9
2017-11-23T00:53:38.533Z,4.1
2017-11-23T00:54:41.239Z,3.7
2017-11-23T00:55:43.724Z,3.7
2017-11-23T00:56:46.380Z,3.7
2017-11-23T00:57:49.678Z,3.6
2017-11-23T00:58:52.255Z,4.0
2017-11-23T00:59:55.501Z,3.5
2017-11-23T01:00:58.879Z,4.0
2017-11-23T01:02:02.057Z,3.9
2017-11-23T01:03:03.829Z,3.8
2017-11-23T01:04:05.591Z,4.2
2017-11-23T01:05:07.340Z,4.1
2017-11-23T01:06:09.955Z,4.2
2017-11-23T01:07:14.483Z,4.3
2017-11-23T01:08:16.920Z,3.4
2017-11-23T01:09:18.616Z,4.0
2017-11-23T01:10:21.141Z,3.7
2017-11-23T01:11:23.621Z,4.4
2017-11-23T01:12:26.070Z,4.0
2017-11-23T01:13:28.405Z,4.6
2017-11-23T01:14:31.371Z,4.5
2017-11-23T01:15:33.631Z,4.4
2017-11-23T01:16:36.936Z,4.4
2017-11-23T01:17:39.621Z,4.3
2017-11-23T01:18:42.956Z,4.7
2017-11-23T01:19:45.479Z,4.0
2017-11-23T01:20:48.271Z,4.1
2017-11-23T01:21:51.673Z,4.6
2017-11-23T01:22:54.334Z,4.0
2017-11-23T01:23:56.833Z,4.6
2017-11-23T01:24:59.482Z,4.2
2017-11-23T01:26:01.971Z,4.1
2017-11-23T01:27:04.559Z,4.4
2017-11-23T01:28:06.945Z,4.2
2017-11-23T01:29:09.250Z,4.2
2017-11-23T01:30:11.813Z,3.9
2017-11-23T01:31:14.426Z,4.1
2017-11-23T01:32:17.197Z,4.0
2017-11-23T01:33:20.312Z,4.8
2017-11-23T01:34:23.152Z,4.1
2017-11-23T01:35:25.664Z,4.1
2017-11-23T01:36:28.769Z,4.2
2017-11-23T01:37:30.926Z,4.3
2017-11-23T01:38:33.572Z,3.9
2017-11-23T01:39:36.232Z,4.2
2017-11-23T01:40:38.357Z,4.5
2017-11-23T01:41:40.091Z,4.5
2017-11-23T01:42:42.461Z,4.2
2017-11-23T01:43:44.491Z,4.4
2017-11-23T01:44:47.041Z,4.4
2017-11-23T01:45:50.102Z,4.3
2017-11-23T01:46:52.319Z,4.8
2017-11-23T01:47:55.352Z,4.5
2017-11-23T01:48:57.628Z,4.0
2017-11-23T01:50:00.353Z,4.6
2017-11-23T01:51:04.335Z,3.7
2017-11-23T01:52:06.880Z,4.4
2017-11-23T01:53:10.432Z,4.5
2017-11-23T01:54:13.616Z,4.3
2017-11-23T01:55:16.681Z,4.4
2017-11-23T01:56:19.884Z,4.1
2017-11-23T01:57:22.217Z,4.3
2017-11-23T01:58:25.725Z,4.4
2017-11-23T01:59:29.049Z,4.5
2017-11-23T02:00:31.505Z,4.2
2017-11-23T02:01:33.870Z,4.4
2017-11-23T02:02:36.186Z,4.4
2017-11-23T02:03:39.072Z,4.9
2017-11-23T02:04:41.421Z,4.4
2017-11-23T02:05:43.201Z,4.6
2017-11-23T02:06:45.017Z,4.4
2017-11-23T02:07:46.944Z,4.3
2017-11-23T02:08:49.375Z,4.9
2017-11-23T02:09:52.236Z,4.5
2017-11-23T02:10:55.467Z,4.4
2017-11-23T02:11:58.713Z,4.1
2017-11-23T02:13:01.670Z,4.4
2017-11-23T02:14:04.521Z,4.5
2017-11-23T02:15:06.843Z,4.4
2017-11-23T02:16:09.525Z,4.9
2017-11-23T02:17:12.477Z,4.4
2017-11-23T02:18:16.194Z,4.2
2017-11-23T02:19:18.855Z,4.5
2017-11-23T02:20:21.984Z,4.5
2017-11-23T02:21:24.758Z,4.5
2017-11-23T02:22:27.437Z,4.5
2017-11-23T02:23:31.396Z,4.4
2017-11-23T02:24:33.697Z,4.6
2017-11-23T02:25:37.512Z,4.2
2017-11-23T02:26:41.105Z,4.6
2017-11-23T02:27:43.564Z,4.8
2017-11-23T02:28:47.121Z,4.2
2017-11-23T02:29:49.985Z,4.3
2017-11-23T02:30:52.484Z,4.5
2017-11-23T02:31:54.802Z,4.3
2017-11-23T02:32:56.946Z,4.4
2017-11-23T02:34:02.158Z,4.3
2017-11-23T02:35:04.164Z,4.5
2017-11-23T02:36:06.262Z,4.9
2017-11-23T02:37:08.431Z,4.5
2017-11-23T02:38:12.605Z,4.2
2017-11-23T02:39:15.712Z,4.9
2017-11-23T02:40:18.157Z,4.3
2017-11-23T02:41:20.547Z,4.7
2017-11-23T02:42:22.820Z,4.4
2017-11-23T02:43:25.252Z,4.7
2017-11-23T02:44:28.159Z,4.2
2017-11-23T02:45:32.040Z,4.5
2017-11-23T02:46:34.614Z,4.3
2017-11-23T02:47:36.690Z,4.4
2017-11-23T02:48:38.865Z,4.1
2017-11-23T02:49:42.154Z,4.7
2017-11-23T02:50:44.717Z,4.8
2017-11-23T02:51:46.965Z,4.5
2017-11-23T02:52:48.658Z,4.5
2017-11-23T02:53:51.072Z,4.4
2017-11-23T02:54:53.844Z,4.2
2017-11-23T02:55:56.539Z,4.5
2017-11-23T02:57:01.782Z,4.6
2017-11-23T02:58:05.814Z,4.1
2017-11-23T02:59:08.107Z,4.3
2017-11-23T03:00:10.824Z,4.4
2017-11-23T03:01:12.667Z,4.0
2017-11-23T03:02:14.581Z,4.3
2017-11-23T03:03:16.577Z,4.4
2017-11-23T03:04:18.956Z,4.6
2017-11-23T03:05:20.926Z,4.3
2017-11-23T03:06:22.992Z,4.5
2017-11-23T03:07:24.776Z,4.2
2017-11-23T03:08:27.213Z,4.2
2017-11-23T03:09:29.776Z,4.1
2017-11-23T03:10:32.349Z,4.7
2017-11-23T03:11:34.112Z,4.5
2017-11-23T03:12:36.521Z,4.6
2017-11-23T03:13:39.021Z,4.2
2017-11-23T03:14:40.776Z,4.6
2017-11-23T03:15:42.841Z,4.7
2017-11-23T03:16:45.855Z,4.6
2017-11-23T03:17:47.884Z,4.5
2017-11-23T03:18:50.140Z,4.1
2017-11-23T03:19:52.964Z,4.8
2017-11-23T03:20:55.116Z,4.5
2017-11-23T03:21:57.183Z,4.4
2017-11-23T03:22:59.630Z,5.3
2017-11-23T03:24:01.473Z,4.2
2017-11-23T03:25:03.574Z,4.4
2017-11-23T03:26:06.142Z,4.3
2017-11-23T03:27:09.204Z,4.2
2017-11-23T03:28:11.414Z,4.3
2017-11-23T03:29:14.592Z,4.3
2017-11-23T03:30:17.131Z,4.7
2017-11-23T03:31:26.732Z,4.8
2017-11-23T03:32:28.676Z,4.4
2017-11-23T03:33:32.918Z,4.9
2017-11-23T03:34:35.207Z,4.5
2017-11-23T03:35:38.008Z,4.7
2017-11-23T03:36:39.770Z,4.2
2017-11-23T03:37:41.796Z,4.5
2017-11-23T03:38:44.327Z,4.7
2017-11-23T03:39:46.237Z,4.8
2017-11-23T03:40:48.795Z,4.4
2017-11-23T03:41:51.360Z,4.8
2017-11-23T03:42:54.218Z,4.9
2017-11-23T03:43:56.621Z,4.1
2017-11-23T03:44:58.924Z,5.2
2017-11-23T03:46:07.567Z,4.4
2017-11-23T03:47:09.655Z,4.9
2017-11-23T03:48:12.097Z,4.5
2017-11-23T03:49:14.684Z,4.6
2017-11-23T03:50:16.986Z,4.4
2017-11-23T03:51:19.102Z,5.0
2017-11-23T03:52:22.834Z,4.7
2017-11-23T03:53:27.887Z,5.1
2017-11-23T03:54:30.079Z,4.7
2017-11-23T03:55:32.163Z,4.3
2017-11-23T03:56:37.230Z,4.8
2017-11-23T03:57:39.364Z,4.7
2017-11-23T03:58:41.175Z,4.6
2017-11-23T03:59:45.638Z,4.8
2017-11-23T04:00:47.462Z,4.5
2017-11-23T04:01:49.246Z,4.4
2017-11-23T04:02:51.759Z,4.5
2017-11-23T04:03:55.106Z,5.3
2017-11-23T04:04:57.685Z,4.7
2017-11-23T04:06:00.953Z,4.6
2017-11-23T04:07:03.576Z,5.0
2017-11-23T04:08:06.260Z,4.6
2017-11-23T04:09:08.337Z,5.0
2017-11-23T04:10:10.880Z,5.0
2017-11-23T04:11:13.771Z,5.0
2017-11-23T04:12:16.841Z,5.1
2017-11-23T04:13:22.202Z,4.5
2017-11-23T04:14:26.996Z,5.2
2017-11-23T04:15:29.210Z,4.6
2017-11-23T04:16:30.902Z,4.5
2017-11-23T04:17:34.509Z,4.9
2017-11-23T04:18:37.147Z,5.0
2017-11-23T04:19:39.183Z,5.3
2017-11-23T04:20:41.537Z,5.8
2017-11-23T04:21:44.241Z,5.4
2017-11-23T04:22:46.025Z,5.6
2017-11-23T04:23:48.122Z,5.3
2017-11-23T04:24:52.774Z,5.2
2017-11-23T04:25:55.096Z,5.5
2017-11-23T04:26:57.027Z,5.6
2017-11-23T04:27:59.172Z,5.5
2017-11-23T04:29:02.185Z,6.0
2017-11-23T04:30:04.769Z,5.7
2017-11-23T04:31:06.915Z,6.0
2017-11-23T04:32:10.061Z,6.1
2017-11-23T04:33:12.180Z,5.9
2017-11-23T04:34:14.089Z,6.1
2017-11-23T04:35:15.967Z,5.9
2017-11-23T04:36:17.819Z,6.2
2017-11-23T04:37:19.666Z,5.8
2017-11-23T04:38:21.550Z,6.0
2017-11-23T04:39:23.503Z,6.4
2017-11-23T04:40:25.212Z,6.0
2017-11-23T04:41:27.222Z,6.0
2017-11-23T04:42:29.566Z,5.9
2017-11-23T04:43:32.006Z,5.9
2017-11-23T04:44:34.592Z,5.8
2017-11-23T04:45:36.767Z,5.7
2017-11-23T04:46:38.836Z,6.0
2017-11-23T04:47:41.112Z,5.9
2017-11-23T04:48:43.150Z,6.1
2017-11-23T04:49:45.526Z,6.3
2017-11-23T04:50:47.242Z,6.5
2017-11-23T04:51:48.951Z,6.0
2017-11-23T04:52:51.998Z,6.5
2017-11-23T04:53:54.361Z,6.9
2017-11-23T04:54:58.492Z,6.3
2017-11-23T04:56:02.256Z,6.3
2017-11-23T04:57:04.702Z,6.5
2017-11-23T04:58:07.569Z,6.3
2017-11-23T04:59:09.961Z,6.4
2017-11-23T05:00:11.908Z,6.5
2017-11-23T05:01:13.976Z,5.9
2017-11-23T05:02:15.773Z,6.3
2017-11-23T05:03:17.583Z,6.3
2017-11-23T05:04:19.409Z,6.0
2017-11-23T05:05:21.902Z,6.3
2017-11-23T05:06:24.834Z,6.3
2017-11-23T05:07:28.705Z,6.3
2017-11-23T05:08:31.304Z,6.3
2017-11-23T05:09:34.744Z,6.1
2017-11-23T05:10:36.884Z,5.7
2017-11-23T05:11:38.945Z,6.3
2017-11-23T05:12:40.659Z,6.4
2017-11-23T05:13:42.615Z,6.6
2017-11-23T05:14:45.554Z,5.9
2017-11-23T05:15:48.298Z,5.8
2017-11-23T05:16:52.590Z,6.1
2017-11-23T05:17:54.795Z,6.4
2017-11-23T05:18:57.262Z,6.2
2017-11-23T05:19:59.304Z,6.1
2017-11-23T05:21:01.051Z,6.0
2017-11-23T05:22:03.873Z,6.2
2017-11-23T05:23:05.780Z,6.4
2017-11-23T05:24:07.571Z,5.9
2017-11-23T05:25:09.236Z,6.0
2017-11-23T05:26:11.583Z,6.4
2017-11-23T05:27:13.852Z,6.2
2017-11-23T05:28:16.835Z,6.2
2017-11-23T05:29:19.515Z,5.3
2017-11-23T05:30:21.291Z,6.2
2017-11-23T05:31:22.997Z,6.1
2017-11-23T05:32:24.772Z,6.3
2017-11-23T05:33:26.686Z,6.3
2017-11-23T05:34:30.225Z,5.9
2017-11-23T05:35:31.984Z,6.2
2017-11-23T05:36:34.611Z,6.4
2017-11-23T05:37:37.407Z,6.6
2017-11-23T05:38:41.637Z,6.3
2017-11-23T05:39:44.122Z,6.0
2017-11-23T05:40:49.397Z,6.2
2017-11-23T05:41:59.098Z,6.5
2017-11-23T05:43:02.826Z,6.5
2017-11-23T05:44:04.743Z,6.3
2017-11-23T05:45:07.030Z,6.6
2017-11-23T05:46:09.877Z,6.8
2017-11-23T05:47:12.634Z,7.0
2017-11-23T05:48:15.692Z,7.2
2017-11-23T05:49:18.239Z,7.0
2017-11-23T05:50:20.943Z,6.4
2017-11-23T05:51:22.814Z,7.0
2017-11-23T05:52:25.616Z,6.1
2017-11-23T05:53:28.166Z,6.2
2017-11-23T05:54:31.175Z,6.4
2017-11-23T05:55:33.258Z,6.5
2017-11-23T05:56:35.546Z,6.3
2017-11-23T05:57:38.137Z,6.7
2017-11-23T05:58:40.941Z,6.7
2017-11-23T05:59:43.400Z,6.2
2017-11-23T06:00:46.312Z,7.0
2017-11-23T06:01:48.751Z,6.7
2017-11-23T06:02:51.107Z,7.1
2017-11-23T06:03:55.632Z,7.0
2017-11-23T06:04:58.583Z,6.7
2017-11-23T06:06:01.328Z,6.4
2017-11-23T06:07:04.285Z,7.2
2017-11-23T06:08:07.308Z,6.2
2017-11-23T06:09:09.915Z,6.7
2017-11-23T06:10:13.283Z,6.8
2017-11-23T06:11:15.811Z,6.9
2017-11-23T06:12:17.810Z,6.5
2017-11-23T06:13:20.170Z,6.7
2017-11-23T06:14:22.451Z,7.0
2017-11-23T06:15:24.336Z,7.0
2017-11-23T06:16:26.926Z,6.4
2017-11-23T06:17:29.794Z,7.5
2017-11-23T06:18:31.849Z,6.9
2017-11-23T06:19:33.553Z,7.8
2017-11-23T06:20:35.448Z,6.5
2017-11-23T06:21:38.132Z,6.5
2017-11-23T06:22:40.512Z,6.8
2017-11-23T06:23:42.815Z,6.9
2017-11-23T06:24:45.406Z,6.5
2017-11-23T06:25:47.950Z,7.1
2017-11-23T06:26:49.866Z,6.9
2017-11-23T06:27:51.725Z,6.3
2017-11-23T06:28:54.367Z,7.1
2017-11-23T06:29:57.549Z,6.8
2017-11-23T06:31:00.866Z,6.8
2017-11-23T06:32:02.575Z,7.1
2017-11-23T06:33:04.887Z,6.5
2017-11-23T06:34:07.986Z,6.7
2017-11-23T06:35:11.961Z,6.9
2017-11-23T06:36:15.217Z,7.4
2017-11-23T06:37:17.544Z,6.2
2017-11-23T06:38:19.693Z,7.0
2017-11-23T06:39:21.488Z,6.7
2017-11-23T06:40:23.203Z,6.9
2017-11-23T06:41:25.103Z,6.6
2017-11-23T06:42:27.294Z,6.2
2017-11-23T06:43:30.238Z,6.6
2017-11-23T06:44:32.776Z,7.1
2017-11-23T06:45:35.150Z,7.1
2017-11-23T06:46:36.925Z,6.7
2017-11-23T06:47:38.732Z,6.9
2017-11-23T06:48:40.484Z,6.8
2017-11-23T06:49:43.212Z,6.6
2017-11-23T06:50:45.403Z,6.6
2017-11-23T06:51:47.693Z,6.8
2017-11-23T06:52:49.634Z,6.5
2017-11-23T06:53:51.686Z,6.6
2017-11-23T06:54:54.007Z,6.7
2017-11-23T06:55:56.006Z,6.7
2017-11-23T06:56:58.336Z,6.5
2017-11-23T06:58:00.905Z,6.5
2017-11-23T06:59:02.744Z,6.7
2017-11-23T07:00:04.525Z,6.6
2017-11-23T07:01:06.966Z,6.1
2017-11-23T07:02:09.490Z,6.4
2017-11-23T07:03:11.944Z,6.6
2017-11-23T07:04:14.824Z,6.5
2017-11-23T07:05:16.967Z,6.3
2017-11-23T07:06:18.989Z,6.1
2017-11-23T07:07:21.080Z,6.2
2017-11-23T07:08:23.149Z,6.6
2017-11-23T07:09:25.290Z,6.1
2017-11-23T07:10:28.072Z,7.0
2017-11-23T07:11:30.392Z,6.9
2017-11-23T07:12:32.722Z,6.2
2017-11-23T07:13:34.935Z,6.3
2017-11-23T07:14:36.867Z,6.9
2017-11-23T07:15:38.701Z,6.5
2017-11-23T07:16:41.039Z,6.3
2017-11-23T07:17:45.603Z,6.5
2017-11-23T07:18:47.962Z,6.3
2017-11-23T07:19:50.606Z,6.1
2017-11-23T07:20:52.505Z,6.5
2017-11-23T07:21:55.373Z,6.5
2017-11-23T07:22:58.073Z,6.2
2017-11-23T07:24:00.855Z,6.3
2017-11-23T07:25:02.644Z,6.6
2017-11-23T07:26:04.537Z,6.4
2017-11-23T07:27:06.575Z,6.6
2017-11-23T07:28:09.343Z,6.8
2017-11-23T07:29:11.198Z,6.1
2017-11-23T07:30:13.499Z,6.1
2017-11-23T07:31:15.830Z,6.8
2017-11-23T07:32:17.942Z,6.0
2017-11-23T07:33:19.650Z,6.1
2017-11-23T07:34:22.076Z,6.9
2017-11-23T07:35:25.031Z,6.2
2017-11-23T07:36:27.468Z,6.5
2017-11-23T07:37:29.363Z,6.5
2017-11-23T07:38:31.397Z,6.3
2017-11-23T07:39:33.934Z,6.0
2017-11-23T07:40:36.243Z,6.8
2017-11-23T07:41:38.592Z,5.9
2017-11-23T07:42:41.165Z,6.3
2017-11-23T07:43:42.964Z,5.8
2017-11-23T07:44:45.578Z,6.2
2017-11-23T07:45:47.445Z,6.3
2017-11-23T07:46:49.142Z,6.0
2017-11-23T07:47:51.067Z,6.2
2017-11-23T07:48:53.180Z,6.1
2017-11-23T07:49:55.048Z,5.7
2017-11-23T07:50:57.413Z,5.6
2017-11-23T07:51:59.979Z,6.0
2017-11-23T07:53:02.459Z,6.1
2017-11-23T07:54:04.973Z,5.6
2017-11-23T07:55:07.195Z,5.9
2017-11-23T07:56:09.482Z,5.9
2017-11-23T07:57:11.272Z,6.1
2017-11-23T07:58:13.085Z,5.6
2017-11-23T07:59:15.500Z,5.5
2017-11-23T08:00:18.432Z,5.7
2017-11-23T08:01:20.798Z,5.9
2017-11-23T08:02:23.459Z,5.3
2017-11-23T08:03:25.670Z,6.0
2017-11-23T08:04:27.401Z,5.7
2017-11-23T08:05:29.653Z,6.1
2017-11-23T08:06:32.437Z,5.8
2017-11-23T08:07:34.157Z,5.6
2017-11-23T08:08:36.356Z,5.7
2017-11-23T08:09:38.598Z,5.3
2017-11-23T08:10:40.985Z,6.2
2017-11-23T08:11:43.381Z,5.3
2017-11-23T08:12:45.837Z,5.0
2017-11-23T08:13:47.990Z,5.5
2017-11-23T08:14:50.304Z,5.3
2017-11-23T08:15:52.933Z,5.4
2017-11-23T08:16:55.081Z,5.8
2017-11-23T08:17:57.151Z,5.4
2017-11-23T08:18:59.828Z,5.1
2017-11-23T08:20:02.469Z,5.3
2017-11-23T08:21:04.310Z,5.4
2017-11-23T08:22:06.310Z,5.3
2017-11-23T08:23:08.356Z,5.4
2017-11-23T08:24:10.114Z,5.9
2017-11-23T08:25:12.567Z,5.3
2017-11-23T08:26:15.038Z,5.8
2017-11-23T08:27:17.345Z,5.1
2017-11-23T08:28:20.344Z,5.1
2017-11-23T08:29:22.263Z,5.4
2017-11-23T08:30:24.274Z,5.4
2017-11-23T08:31:26.307Z,5.7
2017-11-23T08:32:29.079Z,5.3
2017-11-23T08:33:32.059Z,5.1
2017-11-23T08:34:34.092Z,5.3
2017-11-23T08:35:36.682Z,5.5
2017-11-23T08:36:40.131Z,5.2
2017-11-23T08:37:43.112Z,5.0
2017-11-23T08:38:45.243Z,5.3
2017-11-23T08:39:47.176Z,5.0
2017-11-23T08:40:49.808Z,5.2
2017-11-23T08:41:51.604Z,5.3
2017-11-23T08:42:53.490Z,5.4
2017-11-23T08:43:55.439Z,5.1
2017-11-23T08:44:57.158Z,5.4
2017-11-23T08:45:58.920Z,5.3
2017-11-23T08:47:01.208Z,5.2
2017-11-23T08:48:02.954Z,4.9
2017-11-23T08:49:04.797Z,5.2
2017-11-23T08:50:06.534Z,5.2
2017-11-23T08:51:09.560Z,5.1
2017-11-23T08:52:11.824Z,4.9
2017-11-23T08:53:13.598Z,5.1
2017-11-23T08:54:16.087Z,5.1
2017-11-23T08:55:18.668Z,5.0
2017-11-23T08:56:20.631Z,5.3
2017-11-23T08:57:22.863Z,4.9
2017-11-23T08:58:25.180Z,5.3
2017-11-23T08:59:26.966Z,5.1
2017-11-23T09:00:28.791Z,4.9
2017-11-23T09:01:30.751Z,5.4
2017-11-23T09:02:33.868Z,5.1
2017-11-23T09:03:36.647Z,5.1
2017-11-23T09:04:38.997Z,5.2
2017-11-23T09:05:40.784Z,5.4
2017-11-23T09:06:44.659Z,4.7
2017-11-23T09:07:47.484Z,5.1
2017-11-23T09:08:50.065Z,5.3
2017-11-23T09:09:53.576Z,5.2
2017-11-23T09:10:56.063Z,5.2
2017-11-23T09:11:58.485Z,5.4
2017-11-23T09:13:00.253Z,5.5
2017-11-23T09:14:02.277Z,5.0
2017-11-23T09:15:04.998Z,5.5
2017-11-23T09:16:07.070Z,4.6
2017-11-23T09:17:10.950Z,4.7
2017-11-23T09:18:13.561Z,5.2
2017-11-23T09:19:16.738Z,5.1
2017-11-23T09:20:19.508Z,5.0
2017-11-23T09:21:22.409Z,4.6
2017-11-23T09:22:25.949Z,4.8
2017-11-23T09:23:27.739Z,4.7
2017-11-23T09:24:30.846Z,4.5
2017-11-23T09:25:34.674Z,4.6
2017-11-23T09:26:37.086Z,4.7
2017-11-23T09:27:39.971Z,4.4
2017-11-23T09:28:42.912Z,4.6
2017-11-23T09:29:45.969Z,4.2
2017-11-23T09:30:49.124Z,4.6
2017-11-23T09:31:52.440Z,4.5
2017-11-23T09:32:55.113Z,3.8
2017-11-23T09:33:57.421Z,3.7
2017-11-23T09:35:01.536Z,3.8
2017-11-23T09:36:04.195Z,4.4
2017-11-23T09:37:07.482Z,4.0
2017-11-23T09:38:09.455Z,3.9
2017-11-23T09:39:11.477Z,3.6
2017-11-23T09:40:13.551Z,3.6
2017-11-23T09:41:15.565Z,3.9
2017-11-23T09:42:18.462Z,3.5
2017-11-23T09:43:20.947Z,3.2
2017-11-23T09:44:23.202Z,3.3
2017-11-23T09:45:25.768Z,3.2
2017-11-23T09:46:28.801Z,3.0
2017-11-23T09:47:31.206Z,3.2
2017-11-23T09:48:33.548Z,3.2
2017-11-23T09:49:36.094Z,3.3
2017-11-23T09:50:39.559Z,3.1
2017-11-23T09:51:42.117Z,3.1
2017-11-23T09:52:44.456Z,3.0
2017-11-23T09:53:46.162Z,2.9
2017-11-23T09:54:47.992Z,3.2
2017-11-23T09:55:52.507Z,3.1
2017-11-23T09:56:56.060Z,2.8
2017-11-23T09:57:59.045Z,3.1
2017-11-23T09:59:00.824Z,2.9
2017-11-23T10:00:03.535Z,2.7
2017-11-23T10:01:05.490Z,2.6
2017-11-23T10:02:07.672Z,3.2
2017-11-23T10:03:09.982Z,2.7
2017-11-23T10:04:12.455Z,2.8
2017-11-23T10:05:14.223Z,3.1
2017-11-23T10:06:16.313Z,2.9
2017-11-23T10:07:17.963Z,2.9
2017-11-23T10:08:20.856Z,2.7
2017-11-23T10:09:23.187Z,3.0
2017-11-23T10:10:25.481Z,3.1
2017-11-23T10:11:27.854Z,3.1
2017-11-23T10:12:29.710Z,2.9
2017-11-23T10:13:31.522Z,2.8
2017-11-23T10:14:33.437Z,2.9
2017-11-23T10:15:36.546Z,2.7
2017-11-23T10:16:38.730Z,3.0
2017-11-23T10:17:41.759Z,2.8
2017-11-23T10:18:44.480Z,2.4
2017-11-23T10:19:46.591Z,2.7
2017-11-23T10:20:48.421Z,3.1
2017-11-23T10:21:50.165Z,3.3
2017-11-23T10:22:52.255Z,3.1
2017-11-23T10:23:55.068Z,3.2
2017-11-23T10:24:57.341Z,3.3
2017-11-23T10:25:59.451Z,3.0
2017-11-23T10:27:01.679Z,3.1
2017-11-23T10:28:03.922Z,2.8
2017-11-23T10:29:05.782Z,2.8
2017-11-23T10:30:08.942Z,3.2
2017-11-23T10:31:10.601Z,2.9
2017-11-23T10:32:12.473Z,2.7
2017-11-23T10:33:14.862Z,2.8
2017-11-23T10:34:16.465Z,2.8
2017-11-23T10:35:18.896Z,2.8
2017-11-23T10:36:21.014Z,2.8
2017-11-23T10:37:23.028Z,2.7
2017-11-23T10:38:26.486Z,3.0
2017-11-23T10:39:28.682Z,3.1
2017-11-23T10:40:30.437Z,2.8
2017-11-23T10:41:32.417Z,2.8
2017-11-23T10:42:34.162Z,2.9
2017-11-23T10:43:36.437Z,2.8
2017-11-23T10:44:38.503Z,2.7
2017-11-23T10:45:40.182Z,2.6
2017-11-23T10:46:41.952Z,2.7
2017-11-23T10:47:43.641Z,2.9
2017-11-23T10:48:45.417Z,2.6
2017-11-23T10:49:47.158Z,2.8
2017-11-23T10:50:48.937Z,3.0
2017-11-23T10:51:50.777Z,2.7
2017-11-23T10:52:52.586Z,3.0
2017-11-23T10:53:54.944Z,2.8
2017-11-23T10:54:56.669Z,2.6
2017-11-23T10:56:00.193Z,2.6
2017-11-23T10:57:01.984Z,2.9
2017-11-23T10:58:04.837Z,2.9
2017-11-23T10:59:06.866Z,3.2
2017-11-23T11:00:08.719Z,2.9
2017-11-23T11:01:11.410Z,3.3
2017-11-23T11:02:14.404Z,3.4
2017-11-23T11:03:16.636Z,3.0
2017-11-23T11:04:19.902Z,3.2
2017-11-23T11:05:22.514Z,2.7
2017-11-23T11:06:24.368Z,3.3
2017-11-23T11:07:26.181Z,2.9
2017-11-23T11:08:28.019Z,3.2
2017-11-23T11:09:29.761Z,3.2
2017-11-23T11:10:34.140Z,3.1
2017-11-23T11:11:37.710Z,3.5
2017-11-23T11:12:39.503Z,3.2
2017-11-23T11:13:41.279Z,3.3
2017-11-23T11:14:44.023Z,3.1
2017-11-23T11:15:47.527Z,3.1
2017-11-23T11:16:50.579Z,3.1
2017-11-23T11:17:53.094Z,3.2
2017-11-23T11:18:56.893Z,3.9
2017-11-23T11:19:59.080Z,3.1
2017-11-23T11:21:00.817Z,3.7
2017-11-23T11:22:02.832Z,3.2
2017-11-23T11:23:04.865Z,3.2
2017-11-23T11:24:07.865Z,3.3
2017-11-23T11:25:09.700Z,4.4
2017-11-23T11:26:11.704Z,4.2
2017-11-23T11:27:13.405Z,3.2
2017-11-23T11:28:15.611Z,3.5
2017-11-23T11:29:17.435Z,3.5
2017-11-23T11:30:19.112Z,3.2
2017-11-23T11:31:20.867Z,2.9
2017-11-23T11:32:22.570Z,2.6
2017-11-23T11:33:24.512Z,2.6
2017-11-23T11:34:27.596Z,2.6
2017-11-23T11:35:29.901Z,2.8
2017-11-23T11:36:31.808Z,2.8
2017-11-23T11:37:33.843Z,3.2
2017-11-23T11:38:35.538Z,3.1
2017-11-23T11:39:37.207Z,3.7
2017-11-23T11:40:39.272Z,3.0
2017-11-23T11:41:41.140Z,3.0
2017-11-23T11:42:42.945Z,3.2
2017-11-23T11:43:44.659Z,3.3
2017-11-23T11:44:46.366Z,2.8
2017-11-23T11:45:48.177Z,2.4
2017-11-23T11:46:49.954Z,2.7
2017-11-23T11:47:52.273Z,2.5
2017-11-23T11:48:53.971Z,2.8
2017-11-23T11:49:55.799Z,2.4
2017-11-23T11:50:57.698Z,2.7
2017-11-23T11:51:59.365Z,2.4
2017-11-23T11:53:01.099Z,2.5
2017-11-23T11:54:02.839Z,3.2
2017-11-23T11:55:04.686Z,2.3
2017-11-23T11:56:06.356Z,2.4
2017-11-23T11:57:08.081Z,2.3
2017-11-23T11:58:09.796Z,3.2
2017-11-23T11:59:11.460Z,3.0
2017-11-23T12:00:13.447Z,2.3
2017-11-23T12:01:15.870Z,2.5
2017-11-23T12:02:18.079Z,2.9
2017-11-23T12:03:20.272Z,2.4
2017-11-23T12:04:21.991Z,2.6
2017-11-23T12:05:23.720Z,2.5
2017-11-23T12:06:25.475Z,2.5
2017-11-23T12:07:27.267Z,2.5
2017-11-23T12:08:28.920Z,2.9
2017-11-23T12:09:30.592Z,2.7
2017-11-23T12:10:32.276Z,2.6
2017-11-23T12:11:34.068Z,2.4
2017-11-23T12:12:35.851Z,2.5
2017-11-23T12:13:37.572Z,2.8
2017-11-23T12:14:40.277Z,2.5
2017-11-23T12:15:41.971Z,2.3
2017-11-23T12:16:43.698Z,2.8
2017-11-23T12:17:45.411Z,2.6
2017-11-23T12:18:47.103Z,2.6
2017-11-23T12:19:49.113Z,2.7
2017-11-23T12:20:51.904Z,2.3
2017-11-23T12:21:54.183Z,2.7
2017-11-23T12:22:56.597Z,2.3
2017-11-23T12:23:58.895Z,2.6
2017-11-23T12:25:00.891Z,2.6
2017-11-23T12:26:02.570Z,2.9
2017-11-23T12:27:04.711Z,2.5
2017-11-23T12:28:07.383Z,2.7
2017-11-23T12:29:09.433Z,2.8
2017-11-23T12:30:11.182Z,2.5
2017-11-23T12:31:13.009Z,2.5
2017-11-23T12:32:15.048Z,2.5
2017-11-23T12:33:17.248Z,2.6
2017-11-23T12:34:18.888Z,2.6
2017-11-23T12:35:20.586Z,2.7
2017-11-23T12:36:22.240Z,2.2
2017-11-23T12:37:23.929Z,2.3
2017-11-23T12:38:25.579Z,2.5
2017-11-23T12:39:27.320Z,2.7
2017-11-23T12:40:29.110Z,2.1
2017-11-23T12:41:31.200Z,2.5
2017-11-23T12:42:33.060Z,2.4
2017-11-23T12:43:35.180Z,2.4
2017-11-23T12:44:37.162Z,2.8
2017-11-23T12:45:39.062Z,2.2
2017-11-23T12:46:40.839Z,2.5
2017-11-23T12:47:43.040Z,2.4
2017-11-23T12:48:44.821Z,2.8
2017-11-23T12:49:46.552Z,2.6
2017-11-23T12:50:48.225Z,2.5
2017-11-23T12:51:50.062Z,2.1
2017-11-23T12:52:52.175Z,2.5
2017-11-23T12:53:53.939Z,2.1
2017-11-23T12:54:55.745Z,2.4
2017-11-23T12:55:57.469Z,2.5
2017-11-23T12:56:59.227Z,2.6
2017-11-23T12:58:01.040Z,2.5
2017-11-23T12:59:03.411Z,2.5
2017-11-23T13:00:05.216Z,2.4
2017-11-23T13:01:06.999Z,2.6
2017-11-23T13:02:08.733Z,2.6
2017-11-23T13:03:10.408Z,2.8
2017-11-23T13:04:12.144Z,2.7
2017-11-23T13:05:13.768Z,2.7
2017-11-23T13:06:15.719Z,2.7
2017-11-23T13:07:17.480Z,2.9
2017-11-23T13:08:19.220Z,3.1
2017-11-23T13:09:21.047Z,2.9
2017-11-23T13:10:23.229Z,3.0
2017-11-23T13:11:25.382Z,3.1
2017-11-23T13:12:27.040Z,3.0
2017-11-23T13:13:28.783Z,2.7
2017-11-23T13:14:30.399Z,3.1
2017-11-23T13:15:32.220Z,3.3
2017-11-23T13:16:33.913Z,3.2
2017-11-23T13:17:35.701Z,2.7
2017-11-23T13:18:37.438Z,3.5
2017-11-23T13:19:39.585Z,3.0
2017-11-23T13:20:41.328Z,2.8
2017-11-23T13:21:43.265Z,3.5
2017-11-23T13:22:45.528Z,3.7
2017-11-23T13:23:47.358Z,3.0
2017-11-23T13:24:49.323Z,3.3
2017-11-23T13:25:50.955Z,2.9
2017-11-23T13:26:52.740Z,2.9
2017-11-23T13:27:54.523Z,2.8
2017-11-23T13:28:56.268Z,3.0
2017-11-23T13:29:57.943Z,3.2
2017-11-23T13:30:59.595Z,2.8
2017-11-23T13:32:01.362Z,2.3
2017-11-23T13:33:03.056Z,3.2
2017-11-23T13:34:04.730Z,3.0
2017-11-23T13:35:06.530Z,2.8
2017-11-23T13:36:08.557Z,2.5
2017-11-23T13:37:10.239Z,2.4
2017-11-23T13:38:11.921Z,2.3
2017-11-23T13:39:13.611Z,2.7
2017-11-23T13:40:16.201Z,2.5
2017-11-23T13:41:18.294Z,2.5
2017-11-23T13:42:20.265Z,2.9
2017-11-23T13:43:21.946Z,2.6
2017-11-23T13:44:23.641Z,2.5
2017-11-23T13:45:25.345Z,2.3
2017-11-23T13:46:27.348Z,2.4
2017-11-23T13:47:30.436Z,2.8
2017-11-23T13:48:32.187Z,3.1
2017-11-23T13:49:34.632Z,2.2
2017-11-23T13:50:36.316Z,2.5
2017-11-23T13:51:38.264Z,2.5
2017-11-23T13:52:39.966Z,3.0
2017-11-23T13:53:41.683Z,2.6
2017-11-23T13:54:43.386Z,2.7
2017-11-23T13:55:45.112Z,2.2
2017-11-23T13:56:46.815Z,2.4
2017-11-23T13:57:49.340Z,2.4
2017-11-23T13:58:51.031Z,2.2
2017-11-23T13:59:53.487Z,2.2
2017-11-23T14:00:55.783Z,2.7
2017-11-23T14:01:58.052Z,2.6
2017-11-23T14:02:59.751Z,1.9
2017-11-23T14:04:01.546Z,1.8
2017-11-23T14:05:03.264Z,2.0
2017-11-23T14:06:05.348Z,2.3
2017-11-23T14:07:07.205Z,2.0
2017-11-23T14:08:08.837Z,2.8
2017-11-23T14:09:10.611Z,2.2
2017-11-23T14:10:13.499Z,2.2
2017-11-23T14:11:15.312Z,2.3
2017-11-23T14:12:17.886Z,2.1
2017-11-23T14:13:20.582Z,1.9
2017-11-23T14:14:22.803Z,2.3
2017-11-23T14:15:24.645Z,2.2
2017-11-23T14:16:26.492Z,2.1
2017-11-23T14:17:28.609Z,2.7
2017-11-23T14:18:30.670Z,2.0
2017-11-23T14:19:32.538Z,2.1